Details From EHBK - Maastricht
To EHRD - Rotterdam The Hague
Flight Number -
Tags decoded
Created
Modified
Stats Distance 112 nm / 208 km
Max Altitude 0 ft / 0 m
Waypoints 6
Social Downloads 0
Likes 0
Share VATSIM

Download

Looking for another format? Having issues loading an existing format? Contact us
Advertisement - Login to hide

Notes

Requested: EHBK OSGOS SOPVI PESER RIVER EHRD

Route

EHBK OSGOS SOPVI PESER RIVER EHRD

ID Type Via Altitude Latitude Longitude Leg Dist Tot Dist Heading (true) Name
O EHBK APT - 0 ft / 0 m 50.91131˚ 5.76964˚ - 0 nm - Maastricht
OSGOS FIX - 0 ft / 0 m 51.18333˚ 5.91591˚ 17 nm 17 nm 19° / 19° -
SOPVI FIX - 0 ft / 0 m 51.24968˚ 5.90185˚ 4 nm 21 nm 352° / 352° -
PESER FIX - 0 ft / 0 m 51.61465˚ 4.52681˚ 55 nm 77 nm 294° / 293° -
RIVER FIX - 0 ft / 0 m 51.91276˚ 4.13259˚ 23 nm 100 nm 321° / 321° -
O EHRD APT - 0 ft / 0 m 51.95747˚ 4.44166˚ 11 nm 112 nm 77° / 77° Rotterdam The Hague

Altitude Profile

Advertisement - Login to hide

EHBK

Details ICAO EHBK (MST)
Name Maastricht
Region Netherlands
Timezone Europe/Amsterdam (UTC+2.0)
Stats Elevation 375 ft / 114 m (AMSL)
Location 50.911305° 5.769639°
Runways 1
Magnetic Variation 1.576° E

METAR

EHBK 260055Z AUTO 09003KT 9999 NSC 16/15 Q1018

Decode

TAF

TAF EHBK 252345Z 2600/2706 05005KT CAVOK PROB30 2600/2605 7000 BECMG 2607/2610 10010KT

Decode

Departure Runways

ID Width Length Bearing (true) Bearing (mag) Surface Threshold Offset Overrun Length
03 148 ft / 45 m 8,200 ft / 2,499 m 32.55° 30.97° Asphalt 820 ft / 250 m 0 ft / 0 m
21 148 ft / 45 m 8,200 ft / 2,499 m 212.56° 210.98° Asphalt 820 ft / 250 m 0 ft / 0 m

EHRD

Details ICAO EHRD (RTM)
Name Rotterdam The Hague
Region Netherlands
Timezone Europe/Amsterdam (UTC+2.0)
Stats Elevation -15 ft / -5 m (AMSL)
Location 51.957468° 4.441662°
Runways 1
Magnetic Variation 1.111° E

METAR

EHRD 260055Z AUTO 02002KT 3200 BR NSC 16/15 Q1019 BECMG 5000

Decode

TAF

TAF EHRD 252246Z 2600/2706 04004KT 4000 BR NSC BECMG 2600/2603 6000 NSW BECMG 2604/2606 CAVOK BECMG 2608/2611 08010KT

Decode

Destination Runways

ID Width Length Bearing (true) Bearing (mag) Surface Threshold Offset Overrun Length
06 148 ft / 45 m 7,201 ft / 2,195 m 56.93° 55.82° Asphalt 656 ft / 200 m 0 ft / 0 m
24 148 ft / 45 m 7,201 ft / 2,195 m 236.95° 235.84° Asphalt 656 ft / 200 m 0 ft / 0 m

Approach Navaids

Runway Type Ident Frequency Range Bearing (true) Bearing (mag) Slope Elevation
06 Localiser ROS 110.90 MHz 18 nm / 33 km 56.94° 55.83° - -15 ft / -5 m (AMSL)
06 Glidescope ROS 110.90 MHz 15 nm / 28 km 56.94° 55.83° 3.00° -15 ft / -5 m (AMSL)
06 DME ROS 110.90 MHz 18 nm / 33 km - - - -15 ft / -5 m (AMSL)
24 Localiser RSV 110.90 MHz 18 nm / 33 km 236.94° 235.83° - -15 ft / -5 m (AMSL)
24 Glidescope RSV 110.90 MHz 15 nm / 28 km 236.94° 235.83° 3.00° -15 ft / -5 m (AMSL)
24 DME RSV 110.90 MHz 18 nm / 33 km - - - -15 ft / -5 m (AMSL)

Popular Alternatives